createdAt,value
2017-12-23T00:00:25.889Z,21.44
2017-12-23T00:00:57.534Z,21.44
2017-12-23T00:01:29.173Z,21.44
2017-12-23T00:02:00.815Z,21.44
2017-12-23T00:02:32.457Z,21.44
2017-12-23T00:03:04.096Z,21.44
2017-12-23T00:03:35.762Z,21.45
2017-12-23T00:04:07.386Z,21.44
2017-12-23T00:04:39.030Z,21.45
2017-12-23T00:05:10.671Z,21.43
2017-12-23T00:05:42.309Z,21.42
2017-12-23T00:06:13.948Z,21.44
2017-12-23T00:06:45.592Z,21.46
2017-12-23T00:07:17.232Z,21.47
2017-12-23T00:07:48.877Z,21.46
2017-12-23T00:08:20.539Z,21.46
2017-12-23T00:08:52.166Z,21.45
2017-12-23T00:09:23.835Z,21.43
2017-12-23T00:09:55.459Z,21.45
2017-12-23T00:10:27.393Z,21.46
2017-12-23T00:10:59.034Z,21.45
2017-12-23T00:11:30.676Z,21.45
2017-12-23T00:12:02.318Z,21.45
2017-12-23T00:12:33.961Z,21.45
2017-12-23T00:13:05.599Z,21.44
2017-12-23T00:13:37.278Z,21.46
2017-12-23T00:14:08.902Z,21.47
2017-12-23T00:14:40.534Z,21.47
2017-12-23T00:15:12.397Z,21.48
2017-12-23T00:15:44.023Z,21.46
2017-12-23T00:16:15.761Z,21.46
2017-12-23T00:16:47.375Z,21.46
2017-12-23T00:17:19.022Z,21.45
2017-12-23T00:17:50.662Z,21.47
2017-12-23T00:18:22.302Z,21.45
2017-12-23T00:18:53.974Z,21.46
2017-12-23T00:19:25.603Z,21.47
2017-12-23T00:19:57.282Z,21.46
2017-12-23T00:20:28.913Z,21.47
2017-12-23T00:21:00.539Z,21.45
2017-12-23T00:21:32.161Z,21.47
2017-12-23T00:22:03.803Z,21.45
2017-12-23T00:22:35.441Z,21.45
2017-12-23T00:23:07.083Z,21.49
2017-12-23T00:23:38.726Z,21.50
2017-12-23T00:24:10.368Z,21.49
2017-12-23T00:24:42.013Z,21.52
2017-12-23T00:25:13.682Z,21.51
2017-12-23T00:25:45.310Z,21.50
2017-12-23T00:26:16.986Z,21.50
2017-12-23T00:26:48.610Z,21.48
2017-12-23T00:27:20.237Z,21.48
2017-12-23T00:27:51.870Z,21.47
2017-12-23T00:28:23.689Z,21.47
2017-12-23T00:28:55.318Z,21.49
2017-12-23T00:29:26.946Z,21.48
2017-12-23T00:29:58.573Z,21.48
2017-12-23T00:30:30.193Z,21.48
2017-12-23T00:31:01.822Z,21.48
2017-12-23T00:31:33.501Z,21.48
2017-12-23T00:32:05.723Z,21.47
2017-12-23T00:32:37.553Z,21.46
2017-12-23T00:33:09.205Z,21.45
2017-12-23T00:33:40.848Z,21.42
2017-12-23T00:34:12.489Z,21.42
2017-12-23T00:34:44.132Z,21.41
2017-12-23T00:35:15.774Z,21.41
2017-12-23T00:35:47.468Z,21.40
2017-12-23T00:36:19.122Z,21.39
2017-12-23T00:36:51.010Z,21.40
2017-12-23T00:37:22.647Z,21.42
2017-12-23T00:37:54.292Z,21.42
2017-12-23T00:38:25.935Z,21.40
2017-12-23T00:38:57.579Z,21.40
2017-12-23T00:39:29.219Z,21.39
2017-12-23T00:40:00.887Z,21.39
2017-12-23T00:40:32.514Z,21.37
2017-12-23T00:41:04.150Z,21.36
2017-12-23T00:41:35.787Z,21.36
2017-12-23T00:42:07.474Z,21.35
2017-12-23T00:42:39.102Z,21.36
2017-12-23T00:43:10.731Z,21.34
2017-12-23T00:43:42.361Z,21.35
2017-12-23T00:44:13.997Z,21.35
2017-12-23T00:44:45.640Z,21.34
2017-12-23T00:45:17.338Z,21.33
2017-12-23T00:45:48.966Z,21.35
2017-12-23T00:46:20.590Z,21.33
2017-12-23T00:46:52.214Z,21.34
2017-12-23T00:47:23.882Z,21.31
2017-12-23T00:47:55.506Z,21.31
2017-12-23T00:48:27.375Z,21.31
2017-12-23T00:48:59.002Z,21.31
2017-12-23T00:49:30.629Z,21.30
2017-12-23T00:50:02.377Z,21.29
2017-12-23T00:50:34.319Z,21.28
2017-12-23T00:51:05.962Z,21.27
2017-12-23T00:51:37.637Z,21.25
2017-12-23T00:52:09.262Z,21.28
2017-12-23T00:52:40.894Z,21.29
2017-12-23T00:53:12.529Z,21.27
2017-12-23T00:53:44.171Z,21.25
2017-12-23T00:54:15.813Z,21.25
2017-12-23T00:54:47.456Z,21.24
2017-12-23T00:55:19.099Z,21.23
2017-12-23T00:55:50.740Z,21.22
2017-12-23T00:56:22.383Z,21.24
2017-12-23T00:56:54.058Z,21.24
2017-12-23T00:57:25.678Z,21.23
2017-12-23T00:57:57.309Z,21.24
2017-12-23T00:58:28.952Z,21.22
2017-12-23T00:59:00.590Z,21.22
2017-12-23T00:59:32.270Z,21.21
2017-12-23T01:00:03.889Z,21.21
2017-12-23T01:00:35.519Z,21.23
2017-12-23T01:01:07.178Z,21.24
2017-12-23T01:01:38.983Z,21.22
2017-12-23T01:02:10.606Z,21.25
2017-12-23T01:02:42.234Z,21.23
2017-12-23T01:03:13.857Z,21.22
2017-12-23T01:03:45.479Z,21.23
2017-12-23T01:04:17.322Z,21.21
2017-12-23T01:04:48.964Z,21.22
2017-12-23T01:05:20.604Z,21.22
2017-12-23T01:05:52.248Z,21.24
2017-12-23T01:06:23.891Z,21.25
2017-12-23T01:06:55.532Z,21.24
2017-12-23T01:07:27.175Z,21.26
2017-12-23T01:07:58.815Z,21.26
2017-12-23T01:08:30.767Z,21.27
2017-12-23T01:09:02.407Z,21.25
2017-12-23T01:09:34.082Z,21.24
2017-12-23T01:10:05.710Z,21.25
2017-12-23T01:10:37.338Z,21.25
2017-12-23T01:11:08.978Z,21.23
2017-12-23T01:11:40.618Z,21.23
2017-12-23T01:12:12.261Z,21.23
2017-12-23T01:12:43.902Z,21.22
2017-12-23T01:13:15.542Z,21.22
2017-12-23T01:13:47.188Z,21.22
2017-12-23T01:14:18.829Z,21.23
2017-12-23T01:14:50.472Z,21.24
2017-12-23T01:15:22.114Z,21.22
2017-12-23T01:15:53.786Z,21.24
2017-12-23T01:16:25.410Z,21.22
2017-12-23T01:16:57.269Z,21.22
2017-12-23T01:17:28.898Z,21.24
2017-12-23T01:18:00.566Z,21.25
2017-12-23T01:18:32.190Z,21.24
2017-12-23T01:19:03.818Z,21.23
2017-12-23T01:19:35.558Z,21.25
2017-12-23T01:20:07.199Z,21.27
2017-12-23T01:20:38.842Z,21.28
2017-12-23T01:21:10.484Z,21.29
2017-12-23T01:21:42.164Z,21.31
2017-12-23T01:22:13.786Z,21.30
2017-12-23T01:22:45.656Z,21.31
2017-12-23T01:23:17.282Z,21.30
2017-12-23T01:23:48.906Z,21.29
2017-12-23T01:24:20.645Z,21.31
2017-12-23T01:24:52.287Z,21.32
2017-12-23T01:25:23.928Z,21.32
2017-12-23T01:25:55.570Z,21.32
2017-12-23T01:26:27.213Z,21.31
2017-12-23T01:26:58.854Z,21.32
2017-12-23T01:27:30.498Z,21.29
2017-12-23T01:28:02.140Z,21.28
2017-12-23T01:28:33.767Z,21.28
2017-12-23T01:29:05.423Z,21.28
2017-12-23T01:29:37.065Z,21.28
2017-12-23T01:30:08.708Z,21.27
2017-12-23T01:30:40.349Z,21.28
2017-12-23T01:31:11.991Z,21.27
2017-12-23T01:31:43.621Z,21.26
2017-12-23T01:32:15.297Z,21.26
2017-12-23T01:32:47.155Z,21.28
2017-12-23T01:33:18.782Z,21.26
2017-12-23T01:33:50.414Z,21.27
2017-12-23T01:34:22.151Z,21.27
2017-12-23T01:34:53.793Z,21.27
2017-12-23T01:35:25.438Z,21.28
2017-12-23T01:35:57.075Z,21.31
2017-12-23T01:36:28.719Z,21.30
2017-12-23T01:37:00.669Z,21.29
2017-12-23T01:37:32.346Z,21.28
2017-12-23T01:38:03.974Z,21.30
2017-12-23T01:38:35.602Z,21.32
2017-12-23T01:39:07.364Z,21.33
2017-12-23T01:39:38.990Z,21.31
2017-12-23T01:40:10.829Z,21.33
2017-12-23T01:40:42.472Z,21.33
2017-12-23T01:41:14.114Z,21.30
2017-12-23T01:41:45.755Z,21.32
2017-12-23T01:42:17.397Z,21.33
2017-12-23T01:42:49.074Z,21.34
2017-12-23T01:43:20.717Z,21.34
2017-12-23T01:43:52.339Z,21.33
2017-12-23T01:44:24.272Z,21.34
2017-12-23T01:44:55.912Z,21.34
2017-12-23T01:45:27.557Z,21.34
2017-12-23T01:45:59.199Z,21.36
2017-12-23T01:46:30.839Z,21.35
2017-12-23T01:47:02.497Z,21.35
2017-12-23T01:47:34.367Z,21.36
2017-12-23T01:48:06.035Z,21.36
2017-12-23T01:48:37.662Z,21.36
2017-12-23T01:49:09.284Z,21.37
2017-12-23T01:49:40.906Z,21.38
2017-12-23T01:50:12.570Z,21.39
2017-12-23T01:50:44.190Z,21.38
2017-12-23T01:51:16.833Z,21.36
2017-12-23T01:51:48.490Z,21.36
2017-12-23T01:52:20.132Z,21.34
2017-12-23T01:52:51.771Z,21.35
2017-12-23T01:53:23.415Z,21.35
2017-12-23T01:53:55.082Z,21.35
2017-12-23T01:54:26.709Z,21.37
2017-12-23T01:54:58.649Z,21.35
2017-12-23T01:55:30.599Z,21.36
2017-12-23T01:56:02.240Z,21.36
2017-12-23T01:56:33.880Z,21.36
2017-12-23T01:57:05.530Z,21.35
2017-12-23T01:57:37.167Z,21.35
2017-12-23T01:58:08.809Z,21.36
2017-12-23T01:58:40.486Z,21.35
2017-12-23T01:59:12.114Z,21.37
2017-12-23T01:59:43.742Z,21.36
2017-12-23T02:00:15.377Z,21.38
2017-12-23T02:00:47.015Z,21.38
2017-12-23T02:01:18.658Z,21.36
2017-12-23T02:01:50.304Z,21.36
2017-12-23T02:02:21.945Z,21.35
2017-12-23T02:02:53.586Z,21.34
2017-12-23T02:03:25.249Z,21.33
2017-12-23T02:03:57.177Z,21.33
2017-12-23T02:04:28.816Z,21.31
2017-12-23T02:05:00.462Z,21.32
2017-12-23T02:05:32.103Z,21.31
2017-12-23T02:06:03.745Z,21.30
2017-12-23T02:06:35.387Z,21.33
2017-12-23T02:07:07.029Z,21.32
2017-12-23T02:07:38.700Z,21.32
2017-12-23T02:08:10.326Z,21.33
2017-12-23T02:08:41.946Z,21.29
2017-12-23T02:09:13.597Z,21.28
2017-12-23T02:09:45.239Z,21.28
2017-12-23T02:10:16.880Z,21.30
2017-12-23T02:10:48.553Z,21.30
2017-12-23T02:11:20.173Z,21.28
2017-12-23T02:11:51.926Z,21.29
2017-12-23T02:12:23.756Z,21.27
2017-12-23T02:12:55.426Z,21.26
2017-12-23T02:13:27.050Z,21.23
2017-12-23T02:13:58.683Z,21.21
2017-12-23T02:14:30.321Z,21.22
2017-12-23T02:15:01.964Z,21.23
2017-12-23T02:15:33.608Z,21.23
2017-12-23T02:16:05.249Z,21.23
2017-12-23T02:16:36.927Z,21.25
2017-12-23T02:17:08.550Z,21.24
2017-12-23T02:17:40.284Z,21.23
2017-12-23T02:18:12.126Z,21.20
2017-12-23T02:18:43.955Z,21.19
2017-12-23T02:19:15.716Z,21.20
2017-12-23T02:19:47.358Z,21.18
2017-12-23T02:20:19.002Z,21.17
2017-12-23T02:20:50.641Z,21.19
2017-12-23T02:21:22.283Z,21.18
2017-12-23T02:21:53.945Z,21.19
2017-12-23T02:22:25.586Z,21.20
2017-12-23T02:22:57.214Z,21.18
2017-12-23T02:23:28.851Z,21.16
2017-12-23T02:24:00.493Z,21.18
2017-12-23T02:24:32.136Z,21.20
2017-12-23T02:25:03.777Z,21.19
2017-12-23T02:25:35.421Z,21.18
2017-12-23T02:26:07.086Z,21.16
2017-12-23T02:26:38.742Z,21.18
2017-12-23T02:27:10.362Z,21.19
2017-12-23T02:27:42.229Z,21.16
2017-12-23T02:28:13.860Z,21.17
2017-12-23T02:28:45.486Z,21.15
2017-12-23T02:29:17.220Z,21.13
2017-12-23T02:29:48.858Z,21.14
2017-12-23T02:30:20.508Z,21.12
2017-12-23T02:30:52.179Z,21.14
2017-12-23T02:31:23.847Z,21.15
2017-12-23T02:31:55.479Z,21.13
2017-12-23T02:32:27.109Z,21.11
2017-12-23T02:32:58.734Z,21.10
2017-12-23T02:33:30.362Z,21.09
2017-12-23T02:34:02.040Z,21.08
2017-12-23T02:34:33.666Z,21.09
2017-12-23T02:35:05.294Z,21.09
2017-12-23T02:35:36.921Z,21.05
2017-12-23T02:36:08.563Z,21.08
2017-12-23T02:36:40.207Z,21.09
2017-12-23T02:37:11.849Z,21.09
2017-12-23T02:37:43.490Z,21.06
2017-12-23T02:38:15.110Z,21.07
2017-12-23T02:38:46.776Z,21.06
2017-12-23T02:39:18.458Z,21.06
2017-12-23T02:39:50.083Z,21.08
2017-12-23T02:40:21.706Z,21.08
2017-12-23T02:40:53.341Z,21.08
2017-12-23T02:41:24.984Z,21.07
2017-12-23T02:41:56.625Z,21.07
2017-12-23T02:42:28.265Z,21.07
2017-12-23T02:42:59.910Z,21.07
2017-12-23T02:43:31.553Z,21.06
2017-12-23T02:44:03.193Z,21.06
2017-12-23T02:44:34.854Z,21.08
2017-12-23T02:45:06.486Z,21.09
2017-12-23T02:45:38.353Z,21.10
2017-12-23T02:46:09.974Z,21.10
2017-12-23T02:46:41.711Z,21.11
2017-12-23T02:47:13.353Z,21.11
2017-12-23T02:47:44.993Z,21.08
2017-12-23T02:48:16.634Z,21.09
2017-12-23T02:48:48.278Z,21.09
2017-12-23T02:49:19.920Z,21.10
2017-12-23T02:49:51.563Z,21.10
2017-12-23T02:50:23.204Z,21.09
2017-12-23T02:50:54.844Z,21.09
2017-12-23T02:51:26.488Z,21.08
2017-12-23T02:51:58.114Z,21.09
2017-12-23T02:52:29.772Z,21.09
2017-12-23T02:53:01.414Z,21.09
2017-12-23T02:53:33.079Z,21.09
2017-12-23T02:54:04.702Z,21.09
2017-12-23T02:54:36.340Z,21.07
2017-12-23T02:55:07.983Z,21.07
2017-12-23T02:55:39.624Z,21.08
2017-12-23T02:56:11.297Z,21.07
2017-12-23T02:56:42.923Z,21.06
2017-12-23T02:57:14.554Z,21.06
2017-12-23T02:57:46.189Z,21.06
2017-12-23T02:58:17.833Z,21.05
2017-12-23T02:58:49.474Z,21.05
2017-12-23T02:59:21.117Z,21.04
2017-12-23T02:59:52.760Z,21.04
2017-12-23T03:00:24.425Z,21.04
2017-12-23T03:00:56.058Z,21.03
2017-12-23T03:01:27.993Z,21.03
2017-12-23T03:01:59.662Z,21.02
2017-12-23T03:02:31.290Z,21.02
2017-12-23T03:03:03.153Z,21.02
2017-12-23T03:03:34.783Z,21.00
2017-12-23T03:04:06.414Z,20.98
2017-12-23T03:04:38.151Z,20.98
2017-12-23T03:05:09.791Z,20.96
2017-12-23T03:05:41.435Z,20.98
2017-12-23T03:06:13.077Z,21.00
2017-12-23T03:06:44.706Z,21.00
2017-12-23T03:07:16.378Z,21.02
2017-12-23T03:07:48.240Z,21.02
2017-12-23T03:08:19.870Z,21.02
2017-12-23T03:08:51.594Z,21.03
2017-12-23T03:09:23.235Z,21.03
2017-12-23T03:09:54.874Z,21.03
2017-12-23T03:10:26.520Z,21.01
2017-12-23T03:10:58.161Z,21.01
2017-12-23T03:11:29.809Z,21.01
2017-12-23T03:12:01.445Z,21.02
2017-12-23T03:12:33.130Z,21.03
2017-12-23T03:13:04.754Z,21.05
2017-12-23T03:13:36.378Z,21.05
2017-12-23T03:14:08.013Z,21.07
2017-12-23T03:14:39.653Z,21.08
2017-12-23T03:15:11.296Z,21.13
2017-12-23T03:15:42.935Z,21.15
2017-12-23T03:16:14.580Z,21.18
2017-12-23T03:16:46.218Z,21.18
2017-12-23T03:17:17.863Z,21.19
2017-12-23T03:17:49.504Z,21.20
2017-12-23T03:18:21.146Z,21.24
2017-12-23T03:18:52.766Z,21.23
2017-12-23T03:19:24.430Z,21.23
2017-12-23T03:19:56.070Z,21.27
2017-12-23T03:20:27.713Z,21.25
2017-12-23T03:20:59.355Z,21.29
2017-12-23T03:21:30.997Z,21.29
2017-12-23T03:22:02.644Z,21.29
2017-12-23T03:22:34.280Z,21.28
2017-12-23T03:23:05.980Z,21.28
2017-12-23T03:23:37.605Z,21.28
2017-12-23T03:24:09.225Z,21.29
2017-12-23T03:24:40.854Z,21.32
2017-12-23T03:25:12.491Z,21.29
2017-12-23T03:25:44.136Z,21.31
2017-12-23T03:26:15.774Z,21.30
2017-12-23T03:26:47.416Z,21.32
2017-12-23T03:27:19.057Z,21.32
2017-12-23T03:27:50.699Z,21.31
2017-12-23T03:28:22.340Z,21.35
2017-12-23T03:28:53.983Z,21.33
2017-12-23T03:29:25.624Z,21.36
2017-12-23T03:29:57.269Z,21.37
2017-12-23T03:30:28.908Z,21.32
2017-12-23T03:31:00.550Z,21.34
2017-12-23T03:31:32.192Z,21.36
2017-12-23T03:32:03.834Z,21.37
2017-12-23T03:32:35.482Z,21.36
2017-12-23T03:33:07.431Z,21.36
2017-12-23T03:33:39.260Z,21.37
2017-12-23T03:34:11.016Z,21.38
2017-12-23T03:34:42.657Z,21.39
2017-12-23T03:35:14.299Z,21.38
2017-12-23T03:35:45.941Z,21.42
2017-12-23T03:36:17.580Z,21.43
2017-12-23T03:36:49.224Z,21.42
2017-12-23T03:37:20.867Z,21.40
2017-12-23T03:37:52.508Z,21.44
2017-12-23T03:38:24.186Z,21.42
2017-12-23T03:38:55.806Z,21.41
2017-12-23T03:39:27.439Z,21.39
2017-12-23T03:39:59.076Z,21.36
2017-12-23T03:40:30.719Z,21.37
2017-12-23T03:41:02.358Z,21.34
2017-12-23T03:41:34.001Z,21.35
2017-12-23T03:42:05.643Z,21.34
2017-12-23T03:42:37.286Z,21.31
2017-12-23T03:43:08.927Z,21.32
2017-12-23T03:43:40.590Z,21.31
2017-12-23T03:44:12.455Z,21.33
2017-12-23T03:44:44.086Z,21.31
2017-12-23T03:45:15.710Z,21.33
2017-12-23T03:45:47.444Z,21.32
2017-12-23T03:46:19.086Z,21.31
2017-12-23T03:46:50.758Z,21.33
2017-12-23T03:47:22.382Z,21.32
2017-12-23T03:47:54.243Z,21.30
2017-12-23T03:48:25.866Z,21.26
2017-12-23T03:48:57.602Z,21.27
2017-12-23T03:49:29.243Z,21.25
2017-12-23T03:50:00.884Z,21.26
2017-12-23T03:50:32.528Z,21.25
2017-12-23T03:51:04.173Z,21.24
2017-12-23T03:51:35.810Z,21.26
2017-12-23T03:52:07.458Z,21.28
2017-12-23T03:52:39.139Z,21.27
2017-12-23T03:53:10.766Z,21.25
2017-12-23T03:53:42.389Z,21.22
2017-12-23T03:54:14.018Z,21.25
2017-12-23T03:54:45.658Z,21.26
2017-12-23T03:55:17.302Z,21.26
2017-12-23T03:55:48.966Z,21.25
2017-12-23T03:56:20.594Z,21.25
2017-12-23T03:56:52.227Z,21.23
2017-12-23T03:57:23.869Z,21.24
2017-12-23T03:57:55.511Z,21.22
2017-12-23T03:58:27.174Z,21.20
2017-12-23T03:58:58.802Z,21.19
2017-12-23T03:59:30.436Z,21.21
2017-12-23T04:00:02.103Z,21.21
2017-12-23T04:00:33.731Z,21.20
2017-12-23T04:01:05.366Z,21.20
2017-12-23T04:01:37.002Z,21.20
2017-12-23T04:02:08.645Z,21.20
2017-12-23T04:02:40.286Z,21.22
2017-12-23T04:03:11.926Z,21.19
2017-12-23T04:03:43.568Z,21.18
2017-12-23T04:04:15.213Z,21.20
2017-12-23T04:04:46.855Z,21.19
2017-12-23T04:05:18.531Z,21.17
2017-12-23T04:05:50.155Z,21.19
2017-12-23T04:06:21.786Z,21.18
2017-12-23T04:06:53.421Z,21.18
2017-12-23T04:07:25.091Z,21.18
2017-12-23T04:07:56.718Z,21.16
2017-12-23T04:08:28.347Z,21.15
2017-12-23T04:08:59.988Z,21.13
2017-12-23T04:09:31.630Z,21.13
2017-12-23T04:10:03.297Z,21.12
2017-12-23T04:10:34.923Z,21.13
2017-12-23T04:11:06.556Z,21.12
2017-12-23T04:11:38.197Z,21.12
2017-12-23T04:12:09.839Z,21.13
2017-12-23T04:12:41.502Z,21.13
2017-12-23T04:13:13.130Z,21.11
2017-12-23T04:13:44.765Z,21.11
2017-12-23T04:14:16.407Z,21.09
2017-12-23T04:14:48.075Z,21.11
2017-12-23T04:15:19.703Z,21.10
2017-12-23T04:15:51.607Z,21.08
2017-12-23T04:16:23.588Z,21.08
2017-12-23T04:16:55.230Z,21.07
2017-12-23T04:17:26.869Z,21.08
2017-12-23T04:17:58.514Z,21.05
2017-12-23T04:18:30.153Z,21.04
2017-12-23T04:19:01.797Z,21.07
2017-12-23T04:19:33.439Z,21.06
2017-12-23T04:20:05.078Z,21.06
2017-12-23T04:20:36.758Z,21.06
2017-12-23T04:21:08.386Z,21.06
2017-12-23T04:21:40.017Z,21.05
2017-12-23T04:22:11.884Z,21.05
2017-12-23T04:22:43.510Z,21.04
2017-12-23T04:23:15.238Z,21.04
2017-12-23T04:23:46.880Z,21.03
2017-12-23T04:24:18.522Z,21.03
2017-12-23T04:24:50.163Z,21.01
2017-12-23T04:25:21.805Z,21.03
2017-12-23T04:25:53.469Z,21.03
2017-12-23T04:26:25.094Z,21.01
2017-12-23T04:26:56.731Z,21.01
2017-12-23T04:27:28.372Z,21.00
2017-12-23T04:28:00.014Z,20.99
2017-12-23T04:28:31.656Z,20.98
2017-12-23T04:29:04.221Z,20.98
2017-12-23T04:29:35.861Z,20.97
2017-12-23T04:30:07.509Z,20.96
2017-12-23T04:30:39.178Z,20.98
2017-12-23T04:31:10.810Z,20.96
2017-12-23T04:31:42.442Z,20.95
2017-12-23T04:32:14.303Z,20.94
2017-12-23T04:32:45.927Z,20.95
2017-12-23T04:33:17.598Z,20.99
2017-12-23T04:33:49.226Z,21.00
2017-12-23T04:34:20.850Z,21.00
2017-12-23T04:34:52.586Z,21.02
2017-12-23T04:35:24.535Z,21.04
2017-12-23T04:35:56.176Z,21.09
2017-12-23T04:36:27.817Z,21.08
2017-12-23T04:36:59.462Z,21.09
2017-12-23T04:37:31.102Z,21.08
2017-12-23T04:38:02.741Z,21.06
2017-12-23T04:38:34.406Z,21.07
2017-12-23T04:39:06.334Z,21.08
2017-12-23T04:39:37.975Z,21.07
2017-12-23T04:40:09.617Z,21.07
2017-12-23T04:40:41.256Z,21.06
2017-12-23T04:41:12.901Z,21.05
2017-12-23T04:41:44.544Z,21.06
2017-12-23T04:42:16.184Z,21.06
2017-12-23T04:42:47.827Z,21.08
2017-12-23T04:43:19.468Z,21.07
2017-12-23T04:43:51.138Z,21.05
2017-12-23T04:44:22.770Z,21.07
2017-12-23T04:44:54.398Z,21.10
2017-12-23T04:45:26.035Z,21.15
2017-12-23T04:45:57.676Z,21.15
2017-12-23T04:46:29.507Z,21.17
2017-12-23T04:47:01.268Z,21.17
2017-12-23T04:47:32.909Z,21.20
2017-12-23T04:48:04.552Z,21.26
2017-12-23T04:48:36.222Z,21.34
2017-12-23T04:49:07.845Z,21.37
2017-12-23T04:49:39.476Z,21.38
2017-12-23T04:50:11.116Z,21.37
2017-12-23T04:50:42.762Z,21.35
2017-12-23T04:51:14.399Z,21.34
2017-12-23T04:51:46.041Z,21.32
2017-12-23T04:52:17.686Z,21.30
2017-12-23T04:52:49.328Z,21.29
2017-12-23T04:53:21.277Z,21.28
2017-12-23T04:53:52.918Z,21.27
2017-12-23T04:54:24.560Z,21.26
2017-12-23T04:54:56.202Z,21.26
2017-12-23T04:55:27.841Z,21.25
2017-12-23T04:55:59.485Z,21.21
2017-12-23T04:56:31.125Z,21.22
2017-12-23T04:57:02.769Z,21.25
2017-12-23T04:57:34.412Z,21.22
2017-12-23T04:58:06.050Z,21.21
2017-12-23T04:58:37.722Z,21.21
2017-12-23T04:59:09.346Z,21.20
2017-12-23T04:59:40.981Z,21.19
2017-12-23T05:00:12.620Z,21.15
2017-12-23T05:00:44.265Z,21.19
2017-12-23T05:01:15.925Z,21.19
2017-12-23T05:01:47.550Z,21.21
2017-12-23T05:02:19.188Z,21.22
2017-12-23T05:02:50.830Z,21.19
2017-12-23T05:03:22.471Z,21.21
2017-12-23T05:03:54.130Z,21.20
2017-12-23T05:04:26.025Z,21.18
2017-12-23T05:04:57.659Z,21.18
2017-12-23T05:05:29.290Z,21.18
2017-12-23T05:06:00.909Z,21.19
2017-12-23T05:06:32.535Z,21.18
2017-12-23T05:07:04.271Z,21.17
2017-12-23T05:07:35.913Z,21.19
2017-12-23T05:08:07.554Z,21.19
2017-12-23T05:08:39.204Z,21.17
2017-12-23T05:09:10.839Z,21.16
2017-12-23T05:09:42.478Z,21.16
2017-12-23T05:10:14.123Z,21.16
2017-12-23T05:10:45.762Z,21.13
2017-12-23T05:11:17.429Z,21.14
2017-12-23T05:11:49.054Z,21.16
2017-12-23T05:12:20.875Z,21.16
2017-12-23T05:12:52.506Z,21.15
2017-12-23T05:13:24.133Z,21.14
2017-12-23T05:13:55.759Z,21.13
2017-12-23T05:14:27.422Z,21.13
2017-12-23T05:14:59.050Z,21.14
2017-12-23T05:15:30.683Z,21.13
2017-12-23T05:16:02.310Z,21.13
2017-12-23T05:16:33.933Z,21.11
2017-12-23T05:17:05.772Z,21.11
2017-12-23T05:17:37.445Z,21.09
2017-12-23T05:18:09.072Z,21.10
2017-12-23T05:18:40.937Z,21.11
2017-12-23T05:19:12.566Z,21.11
2017-12-23T05:19:44.198Z,21.10
2017-12-23T05:20:15.931Z,21.08
2017-12-23T05:20:47.573Z,21.07
2017-12-23T05:21:19.213Z,21.08
2017-12-23T05:21:50.853Z,21.07
2017-12-23T05:22:22.497Z,21.05
2017-12-23T05:22:54.175Z,21.02
2017-12-23T05:23:25.797Z,21.03
2017-12-23T05:23:57.730Z,21.03
2017-12-23T05:24:29.380Z,21.01
2017-12-23T05:25:01.014Z,21.03
2017-12-23T05:25:32.653Z,20.99
2017-12-23T05:26:04.298Z,21.01
2017-12-23T05:26:35.938Z,21.00
2017-12-23T05:27:07.579Z,20.99
2017-12-23T05:27:39.530Z,20.99
2017-12-23T05:28:11.171Z,20.98
2017-12-23T05:28:42.812Z,20.98
2017-12-23T05:29:14.479Z,20.98
2017-12-23T05:29:46.155Z,20.99
2017-12-23T05:30:17.774Z,20.98
2017-12-23T05:30:49.394Z,20.96
2017-12-23T05:31:21.330Z,20.94
2017-12-23T05:31:52.976Z,20.94
2017-12-23T05:32:24.613Z,20.96
2017-12-23T05:32:56.252Z,20.97
2017-12-23T05:33:27.895Z,20.97
2017-12-23T05:33:59.539Z,20.98
2017-12-23T05:34:31.180Z,20.96
2017-12-23T05:35:02.850Z,20.96
2017-12-23T05:35:34.478Z,20.96
2017-12-23T05:36:06.302Z,20.95
2017-12-23T05:36:38.056Z,20.93
2017-12-23T05:37:09.698Z,20.94
2017-12-23T05:37:41.339Z,20.94
2017-12-23T05:38:12.980Z,20.93
2017-12-23T05:38:44.624Z,20.91
2017-12-23T05:39:16.264Z,20.91
2017-12-23T05:39:47.906Z,20.91
2017-12-23T05:40:19.547Z,20.93
2017-12-23T05:40:51.223Z,20.95
2017-12-23T05:41:22.855Z,20.93
2017-12-23T05:41:54.486Z,20.94
2017-12-23T05:42:26.422Z,20.94
2017-12-23T05:42:58.064Z,20.95
2017-12-23T05:43:29.742Z,20.96
2017-12-23T05:44:01.372Z,20.95
2017-12-23T05:44:32.999Z,20.94
2017-12-23T05:45:04.633Z,20.95
2017-12-23T05:45:36.271Z,20.95
2017-12-23T05:46:07.916Z,20.95
2017-12-23T05:46:39.557Z,20.95
2017-12-23T05:47:11.201Z,20.95
2017-12-23T05:47:42.838Z,20.97
2017-12-23T05:48:14.482Z,20.98
2017-12-23T05:48:46.161Z,21.00
2017-12-23T05:49:17.782Z,21.01
2017-12-23T05:49:49.414Z,21.00
2017-12-23T05:50:21.035Z,20.98
2017-12-23T05:50:52.692Z,20.99
2017-12-23T05:51:24.333Z,21.00
2017-12-23T05:51:55.978Z,21.01
2017-12-23T05:52:27.618Z,20.99
2017-12-23T05:52:59.262Z,21.00
2017-12-23T05:53:30.901Z,21.00
2017-12-23T05:54:02.570Z,21.00
2017-12-23T05:54:34.194Z,20.98
2017-12-23T05:55:05.945Z,20.98
2017-12-23T05:55:37.776Z,21.00
2017-12-23T05:56:09.418Z,21.00
2017-12-23T05:56:41.057Z,20.99
2017-12-23T05:57:12.700Z,20.99
2017-12-23T05:57:44.343Z,21.02
2017-12-23T05:58:15.985Z,21.02
2017-12-23T05:58:47.623Z,21.04
2017-12-23T05:59:19.299Z,21.04
2017-12-23T05:59:50.922Z,21.04
2017-12-23T06:00:22.859Z,21.06
2017-12-23T06:00:54.539Z,21.08
2017-12-23T06:01:26.170Z,21.08
2017-12-23T06:01:57.799Z,21.12
2017-12-23T06:02:29.672Z,21.11
2017-12-23T06:03:01.291Z,21.13
2017-12-23T06:03:33.019Z,21.12
2017-12-23T06:04:04.660Z,21.13
2017-12-23T06:04:36.302Z,21.12
2017-12-23T06:05:07.944Z,21.09
2017-12-23T06:05:39.586Z,21.08
2017-12-23T06:06:11.259Z,21.11
2017-12-23T06:06:42.886Z,21.09
2017-12-23T06:07:14.783Z,21.08
2017-12-23T06:07:46.409Z,21.09
2017-12-23T06:08:18.035Z,21.11
2017-12-23T06:08:49.658Z,21.09
2017-12-23T06:09:21.386Z,21.12
2017-12-23T06:09:53.028Z,21.12
2017-12-23T06:10:24.669Z,21.17
2017-12-23T06:10:56.335Z,21.19
2017-12-23T06:11:27.958Z,21.18
2017-12-23T06:11:59.596Z,21.20
2017-12-23T06:12:31.237Z,21.22
2017-12-23T06:13:02.878Z,21.23
2017-12-23T06:13:34.546Z,21.26
2017-12-23T06:14:06.170Z,21.28
2017-12-23T06:14:38.037Z,21.28
2017-12-23T06:15:09.662Z,21.27
2017-12-23T06:15:41.396Z,21.25
2017-12-23T06:16:13.036Z,21.24
2017-12-23T06:16:44.666Z,21.24
2017-12-23T06:17:16.321Z,21.27
2017-12-23T06:17:47.985Z,21.26
2017-12-23T06:18:19.658Z,21.29
2017-12-23T06:18:51.282Z,21.27
2017-12-23T06:19:22.901Z,21.24
2017-12-23T06:19:54.719Z,21.24
2017-12-23T06:20:26.479Z,21.24
2017-12-23T06:20:58.120Z,21.21
2017-12-23T06:21:29.763Z,21.21
2017-12-23T06:22:01.408Z,21.21
2017-12-23T06:22:33.047Z,21.22
2017-12-23T06:23:04.690Z,21.20
2017-12-23T06:23:36.362Z,21.22
2017-12-23T06:24:07.994Z,21.20
2017-12-23T06:24:39.855Z,21.20
2017-12-23T06:25:11.487Z,21.21
2017-12-23T06:25:43.110Z,21.21
2017-12-23T06:26:14.783Z,21.17
2017-12-23T06:26:46.406Z,21.17
2017-12-23T06:27:18.034Z,21.17
2017-12-23T06:27:49.774Z,21.16
2017-12-23T06:28:21.415Z,21.18
2017-12-23T06:28:53.081Z,21.17
2017-12-23T06:29:24.711Z,21.17
2017-12-23T06:29:56.341Z,21.15
2017-12-23T06:30:27.971Z,21.17
2017-12-23T06:30:59.599Z,21.17
2017-12-23T06:31:31.222Z,21.18
2017-12-23T06:32:02.850Z,21.14
2017-12-23T06:32:34.472Z,21.15
2017-12-23T06:33:06.106Z,21.16
2017-12-23T06:33:37.834Z,21.15
2017-12-23T06:34:09.514Z,21.12
2017-12-23T06:34:41.135Z,21.13
2017-12-23T06:35:12.766Z,21.14
2017-12-23T06:35:44.401Z,21.14
2017-12-23T06:36:16.044Z,21.11
2017-12-23T06:36:47.686Z,21.09
2017-12-23T06:37:19.315Z,21.10
2017-12-23T06:37:50.969Z,21.10
2017-12-23T06:38:22.610Z,21.08
2017-12-23T06:38:54.253Z,21.09
2017-12-23T06:39:25.914Z,21.07
2017-12-23T06:39:57.845Z,21.06
2017-12-23T06:40:29.487Z,21.05
2017-12-23T06:41:01.126Z,21.03
2017-12-23T06:41:32.771Z,21.03
2017-12-23T06:42:04.452Z,21.04
2017-12-23T06:42:36.078Z,21.03
2017-12-23T06:43:07.703Z,21.02
2017-12-23T06:43:39.338Z,21.01
2017-12-23T06:44:10.979Z,20.99
2017-12-23T06:44:42.619Z,20.98
2017-12-23T06:45:14.262Z,20.98
2017-12-23T06:45:45.931Z,20.96
2017-12-23T06:46:17.590Z,20.95
2017-12-23T06:46:49.210Z,20.95
2017-12-23T06:47:20.830Z,20.96
2017-12-23T06:47:52.508Z,20.93